sensor_id;sensor_type;location;lat;lon;timestamp;P1;durP1;ratioP1;P2;durP2;ratioP2
10582;SDS011;33679;51.218;6.786;2023-03-01T00:00:51;5.53;;;4.40;;
10582;SDS011;33679;51.218;6.786;2023-03-01T00:03:24;7.23;;;5.00;;
10582;SDS011;33679;51.218;6.786;2023-03-01T00:05:56;6.13;;;4.20;;
10582;SDS011;33679;51.218;6.786;2023-03-01T00:08:29;7.77;;;5.33;;
10582;SDS011;33679;51.218;6.786;2023-03-01T00:11:05;9.07;;;5.00;;
10582;SDS011;33679;51.218;6.786;2023-03-01T00:13:39;8.70;;;5.67;;
10582;SDS011;33679;51.218;6.786;2023-03-01T00:16:15;8.27;;;5.33;;
10582;SDS011;33679;51.218;6.786;2023-03-01T00:18:50;8.37;;;5.53;;
10582;SDS011;33679;51.218;6.786;2023-03-01T00:21:24;9.90;;;5.60;;
10582;SDS011;33679;51.218;6.786;2023-03-01T00:23:57;8.70;;;5.73;;
10582;SDS011;33679;51.218;6.786;2023-03-01T00:26:31;8.17;;;5.13;;
10582;SDS011;33679;51.218;6.786;2023-03-01T00:29:04;9.30;;;5.00;;
10582;SDS011;33679;51.218;6.786;2023-03-01T00:31:39;7.00;;;4.80;;
10582;SDS011;33679;51.218;6.786;2023-03-01T00:34:12;7.93;;;5.03;;
10582;SDS011;33679;51.218;6.786;2023-03-01T00:36:45;6.50;;;4.97;;
10582;SDS011;33679;51.218;6.786;2023-03-01T00:39:18;7.70;;;5.00;;
10582;SDS011;33679;51.218;6.786;2023-03-01T00:41:50;6.50;;;4.77;;
10582;SDS011;33679;51.218;6.786;2023-03-01T00:44:23;7.33;;;4.20;;
10582;SDS011;33679;51.218;6.786;2023-03-01T00:46:57;4.03;;;3.63;;
10582;SDS011;33679;51.218;6.786;2023-03-01T00:49:30;5.53;;;4.10;;
10582;SDS011;33679;51.218;6.786;2023-03-01T00:52:04;6.43;;;4.60;;
10582;SDS011;33679;51.218;6.786;2023-03-01T00:54:36;5.60;;;4.67;;
10582;SDS011;33679;51.218;6.786;2023-03-01T00:57:09;6.20;;;5.03;;
10582;SDS011;33679;51.218;6.786;2023-03-01T00:59:47;9.33;;;4.50;;
10582;SDS011;33679;51.218;6.786;2023-03-01T01:02:24;7.77;;;5.57;;
10582;SDS011;33679;51.218;6.786;2023-03-01T01:04:57;7.67;;;5.17;;
10582;SDS011;33679;51.218;6.786;2023-03-01T01:07:30;10.10;;;5.07;;
10582;SDS011;33679;51.218;6.786;2023-03-01T01:10:04;7.93;;;4.73;;
10582;SDS011;33679;51.218;6.786;2023-03-01T01:12:43;7.03;;;4.77;;
10582;SDS011;33679;51.218;6.786;2023-03-01T01:15:19;7.00;;;4.80;;
10582;SDS011;33679;51.218;6.786;2023-03-01T01:17:53;7.80;;;4.73;;
10582;SDS011;33679;51.218;6.786;2023-03-01T01:20:26;7.20;;;4.90;;
10582;SDS011;33679;51.218;6.786;2023-03-01T01:22:59;7.50;;;4.87;;
10582;SDS011;33679;51.218;6.786;2023-03-01T01:25:33;10.00;;;4.67;;
10582;SDS011;33679;51.218;6.786;2023-03-01T01:28:07;8.37;;;5.53;;
10582;SDS011;33679;51.218;6.786;2023-03-01T01:30:41;6.13;;;4.63;;
10582;SDS011;33679;51.218;6.786;2023-03-01T01:33:16;6.30;;;4.67;;
10582;SDS011;33679;51.218;6.786;2023-03-01T01:35:49;10.20;;;5.60;;
10582;SDS011;33679;51.218;6.786;2023-03-01T01:38:22;6.37;;;4.87;;
10582;SDS011;33679;51.218;6.786;2023-03-01T01:40:57;13.97;;;5.60;;
10582;SDS011;33679;51.218;6.786;2023-03-01T01:43:39;8.53;;;5.13;;
10582;SDS011;33679;51.218;6.786;2023-03-01T01:46:16;10.90;;;5.70;;
10582;SDS011;33679;51.218;6.786;2023-03-01T01:48:59;5.50;;;4.40;;
10582;SDS011;33679;51.218;6.786;2023-03-01T01:51:36;8.23;;;5.50;;
10582;SDS011;33679;51.218;6.786;2023-03-01T01:54:13;8.10;;;5.87;;
10582;SDS011;33679;51.218;6.786;2023-03-01T01:56:51;7.30;;;5.40;;
10582;SDS011;33679;51.218;6.786;2023-03-01T01:59:28;10.40;;;6.20;;
10582;SDS011;33679;51.218;6.786;2023-03-01T02:02:02;8.37;;;5.40;;
10582;SDS011;33679;51.218;6.786;2023-03-01T02:04:40;9.90;;;5.80;;
10582;SDS011;33679;51.218;6.786;2023-03-01T02:07:14;6.43;;;5.10;;
10582;SDS011;33679;51.218;6.786;2023-03-01T02:09:51;8.40;;;5.80;;
10582;SDS011;33679;51.218;6.786;2023-03-01T02:12:26;9.43;;;5.40;;
10582;SDS011;33679;51.218;6.786;2023-03-01T02:15:11;11.30;;;6.03;;
10582;SDS011;33679;51.218;6.786;2023-03-01T02:17:44;8.83;;;5.40;;
10582;SDS011;33679;51.218;6.786;2023-03-01T02:20:22;6.97;;;5.47;;
10582;SDS011;33679;51.218;6.786;2023-03-01T02:22:58;10.30;;;5.80;;
10582;SDS011;33679;51.218;6.786;2023-03-01T02:25:38;8.80;;;5.13;;
10582;SDS011;33679;51.218;6.786;2023-03-01T02:28:34;6.40;;;5.13;;
10582;SDS011;33679;51.218;6.786;2023-03-01T02:31:14;9.47;;;6.30;;
10582;SDS011;33679;51.218;6.786;2023-03-01T02:34:06;7.03;;;4.83;;
10582;SDS011;33679;51.218;6.786;2023-03-01T02:36:40;6.90;;;5.10;;
10582;SDS011;33679;51.218;6.786;2023-03-01T02:39:17;8.30;;;5.47;;
10582;SDS011;33679;51.218;6.786;2023-03-01T02:41:58;9.10;;;6.17;;
10582;SDS011;33679;51.218;6.786;2023-03-01T02:44:34;7.63;;;5.20;;
10582;SDS011;33679;51.218;6.786;2023-03-01T02:47:07;10.87;;;5.80;;
10582;SDS011;33679;51.218;6.786;2023-03-01T02:49:42;8.30;;;5.10;;
10582;SDS011;33679;51.218;6.786;2023-03-01T02:55:14;8.83;;;6.03;;
10582;SDS011;33679;51.218;6.786;2023-03-01T02:57:49;6.73;;;5.60;;
10582;SDS011;33679;51.218;6.786;2023-03-01T03:00:24;7.00;;;5.23;;
10582;SDS011;33679;51.218;6.786;2023-03-01T03:03:01;7.03;;;5.43;;
10582;SDS011;33679;51.218;6.786;2023-03-01T03:05:37;13.03;;;5.47;;
10582;SDS011;33679;51.218;6.786;2023-03-01T03:08:10;8.33;;;5.30;;
10582;SDS011;33679;51.218;6.786;2023-03-01T03:10:47;10.30;;;6.83;;
10582;SDS011;33679;51.218;6.786;2023-03-01T03:13:24;7.60;;;5.60;;
10582;SDS011;33679;51.218;6.786;2023-03-01T03:16:01;7.73;;;5.13;;
10582;SDS011;33679;51.218;6.786;2023-03-01T03:18:35;9.80;;;5.70;;
10582;SDS011;33679;51.218;6.786;2023-03-01T03:21:08;13.03;;;5.67;;
10582;SDS011;33679;51.218;6.786;2023-03-01T03:23:43;8.30;;;5.77;;
10582;SDS011;33679;51.218;6.786;2023-03-01T03:26:20;8.03;;;6.00;;
10582;SDS011;33679;51.218;6.786;2023-03-01T03:28:52;7.10;;;4.97;;
10582;SDS011;33679;51.218;6.786;2023-03-01T03:31:27;5.23;;;4.50;;
10582;SDS011;33679;51.218;6.786;2023-03-01T03:34:06;5.17;;;4.60;;
10582;SDS011;33679;51.218;6.786;2023-03-01T03:36:49;8.50;;;6.50;;
10582;SDS011;33679;51.218;6.786;2023-03-01T03:39:27;8.50;;;5.50;;
10582;SDS011;33679;51.218;6.786;2023-03-01T03:42:07;10.10;;;5.27;;
10582;SDS011;33679;51.218;6.786;2023-03-01T03:44:43;6.67;;;5.70;;
10582;SDS011;33679;51.218;6.786;2023-03-01T03:47:18;8.67;;;5.80;;
10582;SDS011;33679;51.218;6.786;2023-03-01T03:49:51;13.40;;;6.50;;
10582;SDS011;33679;51.218;6.786;2023-03-01T03:52:31;8.97;;;4.93;;
10582;SDS011;33679;51.218;6.786;2023-03-01T03:55:05;7.60;;;5.20;;
10582;SDS011;33679;51.218;6.786;2023-03-01T03:57:40;10.77;;;6.33;;
10582;SDS011;33679;51.218;6.786;2023-03-01T04:00:14;7.00;;;5.43;;
10582;SDS011;33679;51.218;6.786;2023-03-01T04:02:51;9.63;;;6.30;;
10582;SDS011;33679;51.218;6.786;2023-03-01T04:05:27;8.30;;;6.03;;
10582;SDS011;33679;51.218;6.786;2023-03-01T04:08:00;8.63;;;5.33;;
10582;SDS011;33679;51.218;6.786;2023-03-01T04:10:34;8.53;;;5.47;;
10582;SDS011;33679;51.218;6.786;2023-03-01T04:13:10;10.80;;;5.80;;
10582;SDS011;33679;51.218;6.786;2023-03-01T04:15:44;9.90;;;6.43;;
10582;SDS011;33679;51.218;6.786;2023-03-01T04:18:24;7.63;;;5.50;;
10582;SDS011;33679;51.218;6.786;2023-03-01T04:20:57;11.30;;;6.13;;
10582;SDS011;33679;51.218;6.786;2023-03-01T04:23:35;10.20;;;6.20;;
10582;SDS011;33679;51.218;6.786;2023-03-01T04:26:13;10.07;;;6.10;;
10582;SDS011;33679;51.218;6.786;2023-03-01T04:28:46;6.70;;;5.23;;
10582;SDS011;33679;51.218;6.786;2023-03-01T04:31:20;9.37;;;5.30;;
10582;SDS011;33679;51.218;6.786;2023-03-01T04:33:55;10.93;;;6.30;;
10582;SDS011;33679;51.218;6.786;2023-03-01T04:36:29;10.90;;;5.50;;
10582;SDS011;33679;51.218;6.786;2023-03-01T04:39:01;10.07;;;5.80;;
10582;SDS011;33679;51.218;6.786;2023-03-01T04:41:45;7.67;;;6.10;;
10582;SDS011;33679;51.218;6.786;2023-03-01T04:44:18;8.43;;;5.93;;
10582;SDS011;33679;51.218;6.786;2023-03-01T04:46:53;7.47;;;5.23;;
10582;SDS011;33679;51.218;6.786;2023-03-01T04:49:27;9.40;;;6.30;;
10582;SDS011;33679;51.218;6.786;2023-03-01T04:52:00;9.00;;;6.00;;
10582;SDS011;33679;51.218;6.786;2023-03-01T04:54:34;9.23;;;6.13;;
10582;SDS011;33679;51.218;6.786;2023-03-01T04:57:07;10.47;;;6.03;;
10582;SDS011;33679;51.218;6.786;2023-03-01T04:59:40;7.47;;;5.90;;
10582;SDS011;33679;51.218;6.786;2023-03-01T05:02:13;9.37;;;6.47;;
10582;SDS011;33679;51.218;6.786;2023-03-01T05:04:47;9.40;;;6.10;;
10582;SDS011;33679;51.218;6.786;2023-03-01T05:07:21;6.70;;;5.23;;
10582;SDS011;33679;51.218;6.786;2023-03-01T05:09:56;9.50;;;5.97;;
10582;SDS011;33679;51.218;6.786;2023-03-01T05:12:34;8.77;;;6.10;;
10582;SDS011;33679;51.218;6.786;2023-03-01T05:15:07;10.63;;;6.23;;
10582;SDS011;33679;51.218;6.786;2023-03-01T05:17:41;8.30;;;6.23;;
10582;SDS011;33679;51.218;6.786;2023-03-01T05:20:15;6.50;;;5.30;;
10582;SDS011;33679;51.218;6.786;2023-03-01T05:22:48;15.13;;;6.77;;
10582;SDS011;33679;51.218;6.786;2023-03-01T05:25:21;9.93;;;6.10;;
10582;SDS011;33679;51.218;6.786;2023-03-01T05:27:54;11.10;;;7.37;;
10582;SDS011;33679;51.218;6.786;2023-03-01T05:30:30;12.57;;;6.93;;
10582;SDS011;33679;51.218;6.786;2023-03-01T05:33:06;11.43;;;6.43;;
10582;SDS011;33679;51.218;6.786;2023-03-01T05:35:46;8.87;;;5.93;;
10582;SDS011;33679;51.218;6.786;2023-03-01T05:38:19;13.70;;;6.13;;
10582;SDS011;33679;51.218;6.786;2023-03-01T05:40:53;12.80;;;7.40;;
10582;SDS011;33679;51.218;6.786;2023-03-01T05:43:25;9.40;;;6.20;;
10582;SDS011;33679;51.218;6.786;2023-03-01T05:46:03;10.47;;;6.67;;
10582;SDS011;33679;51.218;6.786;2023-03-01T05:48:36;10.70;;;6.50;;
10582;SDS011;33679;51.218;6.786;2023-03-01T05:51:10;9.63;;;5.93;;
10582;SDS011;33679;51.218;6.786;2023-03-01T05:53:48;9.23;;;6.03;;
10582;SDS011;33679;51.218;6.786;2023-03-01T05:56:56;7.67;;;5.70;;
10582;SDS011;33679;51.218;6.786;2023-03-01T05:59:24;11.80;;;6.47;;
10582;SDS011;33679;51.218;6.786;2023-03-01T06:01:57;16.03;;;6.50;;
10582;SDS011;33679;51.218;6.786;2023-03-01T06:04:31;11.30;;;6.63;;
10582;SDS011;33679;51.218;6.786;2023-03-01T06:07:05;11.70;;;6.77;;
10582;SDS011;33679;51.218;6.786;2023-03-01T06:09:38;8.33;;;6.20;;
10582;SDS011;33679;51.218;6.786;2023-03-01T06:12:11;10.10;;;6.70;;
10582;SDS011;33679;51.218;6.786;2023-03-01T06:14:44;7.60;;;5.90;;
10582;SDS011;33679;51.218;6.786;2023-03-01T06:17:19;12.30;;;7.53;;
10582;SDS011;33679;51.218;6.786;2023-03-01T06:19:52;9.37;;;6.47;;
10582;SDS011;33679;51.218;6.786;2023-03-01T06:22:27;9.80;;;6.77;;
10582;SDS011;33679;51.218;6.786;2023-03-01T06:25:00;12.23;;;6.37;;
10582;SDS011;33679;51.218;6.786;2023-03-01T06:27:32;10.07;;;6.27;;
10582;SDS011;33679;51.218;6.786;2023-03-01T06:30:06;9.97;;;6.40;;
10582;SDS011;33679;51.218;6.786;2023-03-01T06:32:40;12.60;;;8.10;;
10582;SDS011;33679;51.218;6.786;2023-03-01T06:35:14;10.07;;;6.50;;
10582;SDS011;33679;51.218;6.786;2023-03-01T06:37:52;10.63;;;6.50;;
10582;SDS011;33679;51.218;6.786;2023-03-01T06:40:25;11.20;;;7.50;;
10582;SDS011;33679;51.218;6.786;2023-03-01T06:42:58;14.20;;;7.27;;
10582;SDS011;33679;51.218;6.786;2023-03-01T06:45:32;12.40;;;7.20;;
10582;SDS011;33679;51.218;6.786;2023-03-01T06:48:06;11.17;;;6.70;;
10582;SDS011;33679;51.218;6.786;2023-03-01T06:50:39;16.20;;;7.10;;
10582;SDS011;33679;51.218;6.786;2023-03-01T06:53:13;11.90;;;6.70;;
10582;SDS011;33679;51.218;6.786;2023-03-01T06:55:45;10.87;;;6.43;;
10582;SDS011;33679;51.218;6.786;2023-03-01T06:58:18;10.20;;;7.33;;
10582;SDS011;33679;51.218;6.786;2023-03-01T07:00:51;13.80;;;8.60;;
10582;SDS011;33679;51.218;6.786;2023-03-01T07:03:24;12.37;;;7.40;;
10582;SDS011;33679;51.218;6.786;2023-03-01T07:06:03;13.70;;;7.60;;
10582;SDS011;33679;51.218;6.786;2023-03-01T07:08:40;12.07;;;7.30;;
10582;SDS011;33679;51.218;6.786;2023-03-01T07:11:16;7.80;;;5.73;;
10582;SDS011;33679;51.218;6.786;2023-03-01T07:14:05;12.03;;;7.00;;
10582;SDS011;33679;51.218;6.786;2023-03-01T07:16:43;10.60;;;7.00;;
10582;SDS011;33679;51.218;6.786;2023-03-01T07:19:15;9.13;;;7.00;;
10582;SDS011;33679;51.218;6.786;2023-03-01T07:21:51;12.90;;;7.10;;
10582;SDS011;33679;51.218;6.786;2023-03-01T07:24:30;11.03;;;7.63;;
10582;SDS011;33679;51.218;6.786;2023-03-01T07:27:03;13.37;;;7.03;;
10582;SDS011;33679;51.218;6.786;2023-03-01T07:29:36;13.73;;;6.97;;
10582;SDS011;33679;51.218;6.786;2023-03-01T07:32:09;7.03;;;5.73;;
10582;SDS011;33679;51.218;6.786;2023-03-01T07:34:42;12.80;;;8.07;;
10582;SDS011;33679;51.218;6.786;2023-03-01T07:37:15;14.20;;;7.77;;
10582;SDS011;33679;51.218;6.786;2023-03-01T07:39:49;12.57;;;8.10;;
10582;SDS011;33679;51.218;6.786;2023-03-01T07:42:22;11.47;;;7.20;;
10582;SDS011;33679;51.218;6.786;2023-03-01T07:44:54;13.30;;;7.00;;
10582;SDS011;33679;51.218;6.786;2023-03-01T07:47:27;10.20;;;7.67;;
10582;SDS011;33679;51.218;6.786;2023-03-01T07:49:59;12.30;;;6.77;;
10582;SDS011;33679;51.218;6.786;2023-03-01T07:52:33;10.53;;;7.70;;
10582;SDS011;33679;51.218;6.786;2023-03-01T07:55:13;10.80;;;7.40;;
10582;SDS011;33679;51.218;6.786;2023-03-01T07:57:50;10.17;;;6.70;;
10582;SDS011;33679;51.218;6.786;2023-03-01T08:00:23;12.93;;;7.80;;
10582;SDS011;33679;51.218;6.786;2023-03-01T08:02:58;9.10;;;6.47;;
10582;SDS011;33679;51.218;6.786;2023-03-01T08:05:36;15.20;;;8.87;;
10582;SDS011;33679;51.218;6.786;2023-03-01T08:08:09;13.10;;;8.00;;
10582;SDS011;33679;51.218;6.786;2023-03-01T08:10:46;10.83;;;7.17;;
10582;SDS011;33679;51.218;6.786;2023-03-01T08:13:18;10.47;;;6.80;;
10582;SDS011;33679;51.218;6.786;2023-03-01T08:15:54;13.83;;;7.87;;
10582;SDS011;33679;51.218;6.786;2023-03-01T08:18:35;12.03;;;7.83;;
10582;SDS011;33679;51.218;6.786;2023-03-01T08:21:16;13.23;;;8.00;;
10582;SDS011;33679;51.218;6.786;2023-03-01T08:23:50;12.90;;;7.83;;
10582;SDS011;33679;51.218;6.786;2023-03-01T08:26:28;17.83;;;8.40;;
10582;SDS011;33679;51.218;6.786;2023-03-01T08:29:02;10.37;;;7.07;;
10582;SDS011;33679;51.218;6.786;2023-03-01T08:31:36;11.87;;;7.07;;
10582;SDS011;33679;51.218;6.786;2023-03-01T08:34:11;13.57;;;8.10;;
10582;SDS011;33679;51.218;6.786;2023-03-01T08:36:48;13.30;;;7.40;;
10582;SDS011;33679;51.218;6.786;2023-03-01T08:39:23;12.20;;;7.40;;
10582;SDS011;33679;51.218;6.786;2023-03-01T08:41:59;13.60;;;7.40;;
10582;SDS011;33679;51.218;6.786;2023-03-01T08:44:31;12.47;;;7.20;;
10582;SDS011;33679;51.218;6.786;2023-03-01T08:47:05;12.27;;;7.40;;
10582;SDS011;33679;51.218;6.786;2023-03-01T08:49:37;11.43;;;6.83;;
10582;SDS011;33679;51.218;6.786;2023-03-01T08:52:10;14.13;;;7.53;;
10582;SDS011;33679;51.218;6.786;2023-03-01T08:54:45;11.93;;;7.70;;
10582;SDS011;33679;51.218;6.786;2023-03-01T08:57:23;9.53;;;7.47;;
10582;SDS011;33679;51.218;6.786;2023-03-01T08:59:55;11.43;;;7.50;;
10582;SDS011;33679;51.218;6.786;2023-03-01T09:02:28;11.43;;;7.50;;
10582;SDS011;33679;51.218;6.786;2023-03-01T09:05:00;12.77;;;7.80;;
10582;SDS011;33679;51.218;6.786;2023-03-01T09:07:33;17.60;;;9.77;;
10582;SDS011;33679;51.218;6.786;2023-03-01T09:10:06;11.37;;;7.43;;
10582;SDS011;33679;51.218;6.786;2023-03-01T09:12:41;15.53;;;8.60;;
10582;SDS011;33679;51.218;6.786;2023-03-01T09:15:14;14.47;;;8.83;;
10582;SDS011;33679;51.218;6.786;2023-03-01T09:17:47;13.47;;;8.70;;
10582;SDS011;33679;51.218;6.786;2023-03-01T09:20:20;14.00;;;8.23;;
10582;SDS011;33679;51.218;6.786;2023-03-01T09:22:54;10.23;;;6.60;;
10582;SDS011;33679;51.218;6.786;2023-03-01T09:25:27;10.70;;;7.50;;
10582;SDS011;33679;51.218;6.786;2023-03-01T09:28:05;12.37;;;7.80;;
10582;SDS011;33679;51.218;6.786;2023-03-01T09:30:40;9.83;;;6.23;;
10582;SDS011;33679;51.218;6.786;2023-03-01T09:33:15;12.50;;;7.20;;
10582;SDS011;33679;51.218;6.786;2023-03-01T09:35:57;12.90;;;6.90;;
10582;SDS011;33679;51.218;6.786;2023-03-01T09:38:31;13.13;;;7.70;;
10582;SDS011;33679;51.218;6.786;2023-03-01T09:41:08;13.47;;;7.70;;
10582;SDS011;33679;51.218;6.786;2023-03-01T09:43:45;13.10;;;6.73;;
10582;SDS011;33679;51.218;6.786;2023-03-01T09:46:24;10.67;;;6.80;;
10582;SDS011;33679;51.218;6.786;2023-03-01T09:48:59;12.63;;;6.90;;
10582;SDS011;33679;51.218;6.786;2023-03-01T09:51:36;11.73;;;8.07;;
10582;SDS011;33679;51.218;6.786;2023-03-01T09:54:10;17.70;;;8.40;;
10582;SDS011;33679;51.218;6.786;2023-03-01T09:56:46;15.07;;;7.23;;
10582;SDS011;33679;51.218;6.786;2023-03-01T09:59:27;14.53;;;8.30;;
10582;SDS011;33679;51.218;6.786;2023-03-01T10:02:14;14.37;;;8.30;;
10582;SDS011;33679;51.218;6.786;2023-03-01T10:05:00;12.97;;;7.73;;
10582;SDS011;33679;51.218;6.786;2023-03-01T10:07:48;14.17;;;7.80;;
10582;SDS011;33679;51.218;6.786;2023-03-01T10:10:32;14.23;;;8.60;;
10582;SDS011;33679;51.218;6.786;2023-03-01T10:13:25;9.93;;;6.97;;
10582;SDS011;33679;51.218;6.786;2023-03-01T10:16:09;9.87;;;6.90;;
10582;SDS011;33679;51.218;6.786;2023-03-01T10:18:47;13.97;;;9.00;;
10582;SDS011;33679;51.218;6.786;2023-03-01T10:21:28;10.47;;;7.30;;
10582;SDS011;33679;51.218;6.786;2023-03-01T10:24:10;13.50;;;7.00;;
10582;SDS011;33679;51.218;6.786;2023-03-01T10:26:56;9.37;;;6.67;;
10582;SDS011;33679;51.218;6.786;2023-03-01T10:29:42;10.00;;;7.10;;
10582;SDS011;33679;51.218;6.786;2023-03-01T10:32:30;9.60;;;6.77;;
10582;SDS011;33679;51.218;6.786;2023-03-01T10:35:17;7.07;;;5.67;;
10582;SDS011;33679;51.218;6.786;2023-03-01T10:37:57;12.47;;;6.93;;
10582;SDS011;33679;51.218;6.786;2023-03-01T10:40:50;11.10;;;6.43;;
10582;SDS011;33679;51.218;6.786;2023-03-01T10:43:32;7.93;;;6.60;;
10582;SDS011;33679;51.218;6.786;2023-03-01T10:46:47;9.83;;;6.87;;
10582;SDS011;33679;51.218;6.786;2023-03-01T10:50:00;11.60;;;7.63;;
10582;SDS011;33679;51.218;6.786;2023-03-01T10:52:58;12.80;;;7.23;;
10582;SDS011;33679;51.218;6.786;2023-03-01T10:55:33;12.77;;;7.83;;
10582;SDS011;33679;51.218;6.786;2023-03-01T10:58:12;10.43;;;7.40;;
10582;SDS011;33679;51.218;6.786;2023-03-01T11:01:23;10.50;;;7.23;;
10582;SDS011;33679;51.218;6.786;2023-03-01T11:04:19;10.90;;;7.20;;
10582;SDS011;33679;51.218;6.786;2023-03-01T11:07:00;13.13;;;7.33;;
10582;SDS011;33679;51.218;6.786;2023-03-01T11:09:33;10.17;;;7.93;;
10582;SDS011;33679;51.218;6.786;2023-03-01T11:12:14;12.90;;;6.87;;
10582;SDS011;33679;51.218;6.786;2023-03-01T11:14:49;12.13;;;7.27;;
10582;SDS011;33679;51.218;6.786;2023-03-01T11:17:29;11.37;;;7.80;;
10582;SDS011;33679;51.218;6.786;2023-03-01T11:20:23;14.33;;;7.80;;
10582;SDS011;33679;51.218;6.786;2023-03-01T11:23:03;12.10;;;7.93;;
10582;SDS011;33679;51.218;6.786;2023-03-01T11:25:42;12.00;;;8.00;;
10582;SDS011;33679;51.218;6.786;2023-03-01T11:28:23;13.87;;;7.63;;
10582;SDS011;33679;51.218;6.786;2023-03-01T11:31:02;10.50;;;6.93;;
10582;SDS011;33679;51.218;6.786;2023-03-01T11:33:39;13.73;;;7.80;;
10582;SDS011;33679;51.218;6.786;2023-03-01T11:36:18;11.73;;;7.40;;
10582;SDS011;33679;51.218;6.786;2023-03-01T11:38:57;12.10;;;7.57;;
10582;SDS011;33679;51.218;6.786;2023-03-01T11:41:44;17.00;;;9.63;;
10582;SDS011;33679;51.218;6.786;2023-03-01T11:44:34;14.20;;;8.70;;
10582;SDS011;33679;51.218;6.786;2023-03-01T11:47:14;11.90;;;7.50;;
10582;SDS011;33679;51.218;6.786;2023-03-01T11:50:00;12.93;;;8.23;;
10582;SDS011;33679;51.218;6.786;2023-03-01T11:52:54;12.97;;;7.70;;
10582;SDS011;33679;51.218;6.786;2023-03-01T11:58:49;12.63;;;7.83;;
10582;SDS011;33679;51.218;6.786;2023-03-01T12:01:41;12.13;;;7.53;;
10582;SDS011;33679;51.218;6.786;2023-03-01T12:04:38;9.00;;;6.30;;
10582;SDS011;33679;51.218;6.786;2023-03-01T12:07:49;12.13;;;6.77;;
10582;SDS011;33679;51.218;6.786;2023-03-01T12:10:43;12.00;;;7.87;;
10582;SDS011;33679;51.218;6.786;2023-03-01T12:13:36;11.87;;;7.23;;
10582;SDS011;33679;51.218;6.786;2023-03-01T12:17:09;14.80;;;7.00;;
10582;SDS011;33679;51.218;6.786;2023-03-01T12:26:17;8.77;;;6.47;;
10582;SDS011;33679;51.218;6.786;2023-03-01T12:29:05;8.70;;;5.90;;
10582;SDS011;33679;51.218;6.786;2023-03-01T12:31:58;11.27;;;6.87;;
10582;SDS011;33679;51.218;6.786;2023-03-01T12:38:08;9.90;;;6.03;;
10582;SDS011;33679;51.218;6.786;2023-03-01T12:41:07;10.00;;;5.57;;
10582;SDS011;33679;51.218;6.786;2023-03-01T12:44:13;7.13;;;5.83;;
10582;SDS011;33679;51.218;6.786;2023-03-01T12:47:07;8.70;;;5.40;;
10582;SDS011;33679;51.218;6.786;2023-03-01T12:49:49;14.10;;;6.97;;
10582;SDS011;33679;51.218;6.786;2023-03-01T12:52:35;7.60;;;6.00;;
10582;SDS011;33679;51.218;6.786;2023-03-01T12:55:17;8.50;;;5.40;;
10582;SDS011;33679;51.218;6.786;2023-03-01T12:58:02;8.37;;;5.27;;
10582;SDS011;33679;51.218;6.786;2023-03-01T13:00:51;8.20;;;5.03;;
10582;SDS011;33679;51.218;6.786;2023-03-01T13:03:38;8.83;;;5.47;;
10582;SDS011;33679;51.218;6.786;2023-03-01T13:06:38;8.83;;;4.73;;
10582;SDS011;33679;51.218;6.786;2023-03-01T13:09:22;6.47;;;5.03;;
10582;SDS011;33679;51.218;6.786;2023-03-01T13:12:02;9.50;;;5.47;;
10582;SDS011;33679;51.218;6.786;2023-03-01T13:18:26;8.97;;;6.17;;
10582;SDS011;33679;51.218;6.786;2023-03-01T13:21:06;25.10;;;10.60;;
10582;SDS011;33679;51.218;6.786;2023-03-01T13:23:41;8.40;;;5.90;;
10582;SDS011;33679;51.218;6.786;2023-03-01T13:26:20;8.23;;;5.50;;
10582;SDS011;33679;51.218;6.786;2023-03-01T13:28:58;8.63;;;5.33;;
10582;SDS011;33679;51.218;6.786;2023-03-01T13:32:03;20.17;;;9.70;;
10582;SDS011;33679;51.218;6.786;2023-03-01T13:34:54;15.27;;;6.70;;
10582;SDS011;33679;51.218;6.786;2023-03-01T13:37:36;7.70;;;5.43;;
10582;SDS011;33679;51.218;6.786;2023-03-01T13:43:31;8.83;;;5.70;;
10582;SDS011;33679;51.218;6.786;2023-03-01T13:46:10;9.77;;;6.10;;
10582;SDS011;33679;51.218;6.786;2023-03-01T13:48:49;11.40;;;5.77;;
10582;SDS011;33679;51.218;6.786;2023-03-01T13:51:27;10.90;;;5.90;;
10582;SDS011;33679;51.218;6.786;2023-03-01T13:54:01;11.53;;;5.80;;
10582;SDS011;33679;51.218;6.786;2023-03-01T13:56:43;8.07;;;5.47;;
10582;SDS011;33679;51.218;6.786;2023-03-01T13:59:19;7.33;;;5.53;;
10582;SDS011;33679;51.218;6.786;2023-03-01T14:01:58;8.90;;;5.37;;
10582;SDS011;33679;51.218;6.786;2023-03-01T14:04:37;14.53;;;5.77;;
10582;SDS011;33679;51.218;6.786;2023-03-01T14:07:18;8.00;;;5.40;;
10582;SDS011;33679;51.218;6.786;2023-03-01T14:09:59;8.77;;;5.60;;
10582;SDS011;33679;51.218;6.786;2023-03-01T14:12:43;8.20;;;5.53;;
10582;SDS011;33679;51.218;6.786;2023-03-01T14:15:22;9.60;;;5.60;;
10582;SDS011;33679;51.218;6.786;2023-03-01T14:18:06;10.10;;;6.10;;
10582;SDS011;33679;51.218;6.786;2023-03-01T14:20:44;8.63;;;6.10;;
10582;SDS011;33679;51.218;6.786;2023-03-01T14:23:31;8.33;;;5.33;;
10582;SDS011;33679;51.218;6.786;2023-03-01T14:26:05;7.97;;;5.30;;
10582;SDS011;33679;51.218;6.786;2023-03-01T14:28:43;10.07;;;6.73;;
10582;SDS011;33679;51.218;6.786;2023-03-01T14:31:30;15.77;;;6.33;;
10582;SDS011;33679;51.218;6.786;2023-03-01T14:34:06;11.10;;;5.97;;
10582;SDS011;33679;51.218;6.786;2023-03-01T14:36:48;9.80;;;5.43;;
10582;SDS011;33679;51.218;6.786;2023-03-01T14:39:24;12.40;;;6.40;;
10582;SDS011;33679;51.218;6.786;2023-03-01T14:41:58;12.37;;;5.63;;
10582;SDS011;33679;51.218;6.786;2023-03-01T14:44:33;8.50;;;6.03;;
10582;SDS011;33679;51.218;6.786;2023-03-01T14:47:10;13.90;;;6.00;;
10582;SDS011;33679;51.218;6.786;2023-03-01T14:49:45;8.73;;;6.13;;
10582;SDS011;33679;51.218;6.786;2023-03-01T14:52:19;10.20;;;5.83;;
10582;SDS011;33679;51.218;6.786;2023-03-01T14:54:58;8.07;;;5.90;;
10582;SDS011;33679;51.218;6.786;2023-03-01T14:57:30;6.77;;;5.50;;
10582;SDS011;33679;51.218;6.786;2023-03-01T15:00:05;9.10;;;6.13;;
10582;SDS011;33679;51.218;6.786;2023-03-01T15:02:39;7.10;;;5.33;;
10582;SDS011;33679;51.218;6.786;2023-03-01T15:05:15;7.50;;;5.10;;
10582;SDS011;33679;51.218;6.786;2023-03-01T15:07:57;7.63;;;6.07;;
10582;SDS011;33679;51.218;6.786;2023-03-01T15:10:36;12.33;;;5.10;;
10582;SDS011;33679;51.218;6.786;2023-03-01T15:13:14;8.67;;;5.30;;
10582;SDS011;33679;51.218;6.786;2023-03-01T15:15:53;10.13;;;5.77;;
10582;SDS011;33679;51.218;6.786;2023-03-01T15:18:33;8.33;;;4.83;;
10582;SDS011;33679;51.218;6.786;2023-03-01T15:21:08;8.83;;;5.10;;
10582;SDS011;33679;51.218;6.786;2023-03-01T15:23:41;8.13;;;4.90;;
10582;SDS011;33679;51.218;6.786;2023-03-01T15:26:28;17.20;;;5.83;;
10582;SDS011;33679;51.218;6.786;2023-03-01T15:29:02;7.87;;;5.10;;
10582;SDS011;33679;51.218;6.786;2023-03-01T15:31:35;9.20;;;5.70;;
10582;SDS011;33679;51.218;6.786;2023-03-01T15:34:10;9.00;;;5.50;;
10582;SDS011;33679;51.218;6.786;2023-03-01T15:36:58;12.17;;;5.40;;
10582;SDS011;33679;51.218;6.786;2023-03-01T15:39:43;7.93;;;5.53;;
10582;SDS011;33679;51.218;6.786;2023-03-01T15:42:39;8.30;;;5.30;;
10582;SDS011;33679;51.218;6.786;2023-03-01T15:45:20;8.03;;;5.40;;
10582;SDS011;33679;51.218;6.786;2023-03-01T15:48:00;8.57;;;5.53;;
10582;SDS011;33679;51.218;6.786;2023-03-01T15:50:35;8.53;;;5.70;;
10582;SDS011;33679;51.218;6.786;2023-03-01T15:53:10;8.73;;;4.87;;
10582;SDS011;33679;51.218;6.786;2023-03-01T15:55:45;8.60;;;5.37;;
10582;SDS011;33679;51.218;6.786;2023-03-01T15:58:22;10.00;;;4.87;;
10582;SDS011;33679;51.218;6.786;2023-03-01T16:00:56;9.57;;;5.57;;
10582;SDS011;33679;51.218;6.786;2023-03-01T16:03:29;8.07;;;5.30;;
10582;SDS011;33679;51.218;6.786;2023-03-01T16:06:03;11.17;;;5.33;;
10582;SDS011;33679;51.218;6.786;2023-03-01T16:08:37;8.53;;;4.87;;